TRA913C EHAM-LIEO
Flight info
| Callsign | TRA913C |
|---|---|
| Flight time | 2h 1m |
| Altitude | 35000 |
| Route | WOODY N872 NIK M624 RITAX DCT SUTAL DCT GTQ DCT DEVDI/N0447F370 DCT ODINA DCT ANAKI DCT TORTU DCT RAPUR DCT OKBON DCT BEBEV DCT AJO DCT CORSI |
| Aircraft | A21N/M-SBDE2E3FGHIJ1J5M1P2RWXYZ/LB1D1G1 |
Departure
| Time | 2026-05-06 18:09 |
|---|---|
| Airport | Amsterdam Airport Schiphol (EHAM) |
Arrival
| Time | 2026-05-06 20:10 |
|---|---|
| Airport | Olbia Costa Smeralda Airport (LIEO) |
| Time | Latitude | Longitude | Altitude | Speed | Heading |
|---|---|---|---|---|---|
| 2026-05-06 17:05 | 52.30928 | 4.76889 | 4 ft | 0 kts | 137° |
| 2026-05-06 17:06 | 52.30902 | 4.77112 | 4 ft | 0 kts | 3° |
| 2026-05-06 17:55 | 52.30881 | 4.77111 | 4 ft | 4 kts | 359° |
| 2026-05-06 17:56 | 52.30854 | 4.77110 | 4 ft | 4 kts | 14° |
| 2026-05-06 17:56 | 52.30842 | 4.77101 | 4 ft | 1 kts | 37° |
| 2026-05-06 17:56 | 52.30848 | 4.77129 | 4 ft | 4 kts | 88° |
| 2026-05-06 17:56 | 52.30845 | 4.77173 | 4 ft | 4 kts | 97° |
| 2026-05-06 17:57 | 52.30843 | 4.77200 | 4 ft | 1 kts | 92° |
| 2026-05-06 17:59 | 52.30843 | 4.77206 | 4 ft | 2 kts | 92° |
| 2026-05-06 17:59 | 52.30842 | 4.77237 | 4 ft | 4 kts | 92° |
| 2026-05-06 17:59 | 52.30841 | 4.77295 | 4 ft | 6 kts | 92° |
| 2026-05-06 18:00 | 52.30839 | 4.77382 | 4 ft | 9 kts | 92° |
| 2026-05-06 18:00 | 52.30799 | 4.77460 | 4 ft | 11 kts | 177° |
| 2026-05-06 18:00 | 52.30713 | 4.77457 | 4 ft | 14 kts | 182° |
| 2026-05-06 18:00 | 52.30626 | 4.77388 | 4 ft | 16 kts | 238° |
| 2026-05-06 18:01 | 52.30566 | 4.77225 | 4 ft | 18 kts | 238° |
| 2026-05-06 18:01 | 52.30497 | 4.77049 | 4 ft | 19 kts | 237° |
| 2026-05-06 18:01 | 52.30424 | 4.76862 | 4 ft | 20 kts | 238° |
| 2026-05-06 18:01 | 52.30349 | 4.76663 | 4 ft | 21 kts | 238° |
| 2026-05-06 18:02 | 52.30270 | 4.76454 | 4 ft | 22 kts | 238° |
| 2026-05-06 18:02 | 52.30187 | 4.76237 | 4 ft | 23 kts | 238° |
| 2026-05-06 18:02 | 52.30099 | 4.76010 | 4 ft | 24 kts | 237° |
| 2026-05-06 18:02 | 52.30007 | 4.75774 | 4 ft | 25 kts | 238° |
| 2026-05-06 18:03 | 52.29912 | 4.75526 | 4 ft | 26 kts | 238° |
| 2026-05-06 18:03 | 52.29847 | 4.75356 | 4 ft | 11 kts | 239° |
| 2026-05-06 18:03 | 52.29837 | 4.75225 | 4 ft | 13 kts | 293° |
| 2026-05-06 18:03 | 52.29894 | 4.75097 | 5 ft | 15 kts | 310° |
| 2026-05-06 18:04 | 52.29965 | 4.74963 | 4 ft | 16 kts | 311° |
| 2026-05-06 18:04 | 52.30043 | 4.74820 | 5 ft | 18 kts | 312° |
| 2026-05-06 18:04 | 52.30129 | 4.74663 | 14 ft | 20 kts | 311° |
| 2026-05-06 18:04 | 52.30192 | 4.74548 | 15 ft | 20 kts | 311° |
| 2026-05-06 18:05 | 52.30288 | 4.74370 | 14 ft | 21 kts | 311° |
| 2026-05-06 18:05 | 52.30366 | 4.74206 | 5 ft | 15 kts | 287° |
| 2026-05-06 18:05 | 52.30343 | 4.74068 | 4 ft | 13 kts | 227° |
| 2026-05-06 18:05 | 52.30270 | 4.73974 | 4 ft | 13 kts | 216° |
| 2026-05-06 18:06 | 52.30233 | 4.73930 | 4 ft | 4 kts | 216° |
| 2026-05-06 18:06 | 52.30215 | 4.73908 | 4 ft | 3 kts | 217° |
| 2026-05-06 18:06 | 52.30196 | 4.73876 | 4 ft | 5 kts | 240° |
| 2026-05-06 18:06 | 52.30189 | 4.73810 | 3 ft | 7 kts | 272° |
| 2026-05-06 18:07 | 52.30207 | 4.73740 | 3 ft | 8 kts | 348° |
| 2026-05-06 18:07 | 52.30216 | 4.73739 | 3 ft | 0 kts | 0° |
| 2026-05-06 18:08 | 52.30220 | 4.73739 | 3 ft | 5 kts | 1° |
| 2026-05-06 18:08 | 52.30458 | 4.73759 | 3 ft | 68 kts | 3° |
| 2026-05-06 18:08 | 52.31132 | 4.73822 | 5 ft | 124 kts | 4° |
| 2026-05-06 18:08 | 52.32144 | 4.73911 | 77 ft | 159 kts | 5° |
| 2026-05-06 18:09 | 52.33243 | 4.73981 | 615 ft | 156 kts | 7° |
| 2026-05-06 18:09 | 52.34295 | 4.74398 | 1143 ft | 159 kts | 25° |
| 2026-05-06 18:09 | 52.35340 | 4.75173 | 1595 ft | 172 kts | 25° |
| 2026-05-06 18:09 | 52.36424 | 4.76189 | 2084 ft | 188 kts | 41° |
| 2026-05-06 18:10 | 52.37208 | 4.77997 | 2564 ft | 207 kts | 68° |
| 2026-05-06 18:10 | 52.37388 | 4.80379 | 3243 ft | 218 kts | 94° |
| 2026-05-06 18:10 | 52.36907 | 4.82772 | 4048 ft | 228 kts | 118° |
| 2026-05-06 18:10 | 52.35754 | 4.84619 | 4832 ft | 241 kts | 148° |
| 2026-05-06 18:11 | 52.34074 | 4.85332 | 5331 ft | 262 kts | 178° |
| 2026-05-06 18:11 | 52.32225 | 4.85231 | 5934 ft | 275 kts | 181° |
| 2026-05-06 18:11 | 52.30272 | 4.85066 | 6682 ft | 280 kts | 181° |
| 2026-05-06 18:11 | 52.28322 | 4.84944 | 7489 ft | 282 kts | 181° |
| 2026-05-06 18:12 | 52.26346 | 4.84856 | 8329 ft | 285 kts | 181° |
| 2026-05-06 18:12 | 52.24375 | 4.84789 | 9128 ft | 289 kts | 181° |
| 2026-05-06 18:12 | 52.22359 | 4.84733 | 9955 ft | 292 kts | 181° |
| 2026-05-06 18:12 | 52.20274 | 4.84682 | 10427 ft | 309 kts | 181° |
| 2026-05-06 18:13 | 52.18052 | 4.84630 | 10757 ft | 329 kts | 182° |
| 2026-05-06 18:13 | 52.15710 | 4.84577 | 11221 ft | 342 kts | 182° |
| 2026-05-06 18:13 | 52.13302 | 4.84527 | 11878 ft | 349 kts | 182° |
| 2026-05-06 18:13 | 52.10868 | 4.84477 | 12668 ft | 351 kts | 182° |
| 2026-05-06 18:14 | 52.08435 | 4.84427 | 13479 ft | 352 kts | 182° |
| 2026-05-06 18:14 | 52.05975 | 4.84374 | 14208 ft | 355 kts | 182° |
| 2026-05-06 18:14 | 52.03489 | 4.84297 | 14878 ft | 357 kts | 185° |
| 2026-05-06 18:14 | 52.01063 | 4.83541 | 15520 ft | 356 kts | 202° |
| 2026-05-06 18:15 | 51.98813 | 4.81901 | 16200 ft | 357 kts | 208° |
| 2026-05-06 18:15 | 51.96578 | 4.80091 | 16859 ft | 360 kts | 208° |
| 2026-05-06 18:15 | 51.94332 | 4.78283 | 17503 ft | 363 kts | 208° |
| 2026-05-06 18:15 | 51.92051 | 4.76471 | 18111 ft | 367 kts | 207° |
| 2026-05-06 18:16 | 51.89744 | 4.74654 | 18662 ft | 370 kts | 208° |
| 2026-05-06 18:16 | 51.87414 | 4.72829 | 19200 ft | 373 kts | 207° |
| 2026-05-06 18:16 | 51.85076 | 4.71003 | 19726 ft | 375 kts | 207° |
| 2026-05-06 18:16 | 51.82714 | 4.69163 | 20264 ft | 377 kts | 207° |
| 2026-05-06 18:17 | 51.80345 | 4.67320 | 20780 ft | 380 kts | 207° |
| 2026-05-06 18:17 | 51.77957 | 4.65461 | 21295 ft | 382 kts | 207° |
| 2026-05-06 18:17 | 51.75556 | 4.63595 | 21816 ft | 384 kts | 207° |
| 2026-05-06 18:17 | 51.73134 | 4.61715 | 22319 ft | 387 kts | 207° |
| 2026-05-06 18:18 | 51.70707 | 4.59833 | 22811 ft | 389 kts | 207° |
| 2026-05-06 18:18 | 51.68251 | 4.57931 | 23284 ft | 392 kts | 207° |
| 2026-05-06 18:18 | 51.65778 | 4.56019 | 23718 ft | 395 kts | 207° |
| 2026-05-06 18:18 | 51.63295 | 4.54100 | 24149 ft | 397 kts | 207° |
| 2026-05-06 18:19 | 51.60804 | 4.52295 | 24549 ft | 400 kts | 200° |
| 2026-05-06 18:19 | 51.58026 | 4.51465 | 24942 ft | 405 kts | 183° |
| 2026-05-06 18:19 | 51.55237 | 4.51942 | 25208 ft | 414 kts | 167° |
| 2026-05-06 18:19 | 51.52516 | 4.53735 | 25392 ft | 424 kts | 153° |
| 2026-05-06 18:20 | 51.49972 | 4.56120 | 25550 ft | 433 kts | 151° |
| 2026-05-06 18:20 | 51.47330 | 4.58632 | 25680 ft | 441 kts | 151° |
| 2026-05-06 18:20 | 51.44679 | 4.61102 | 25810 ft | 449 kts | 151° |
| 2026-05-06 18:20 | 51.41915 | 4.63628 | 25938 ft | 456 kts | 152° |
| 2026-05-06 18:21 | 51.39136 | 4.66153 | 26067 ft | 463 kts | 152° |
| 2026-05-06 18:21 | 51.36347 | 4.68677 | 26192 ft | 468 kts | 152° |
| 2026-05-06 18:21 | 51.33497 | 4.71246 | 26470 ft | 469 kts | 152° |
| 2026-05-06 18:21 | 51.30654 | 4.73810 | 26847 ft | 468 kts | 152° |
| 2026-05-06 18:22 | 51.27825 | 4.76370 | 27230 ft | 467 kts | 151° |
| 2026-05-06 18:22 | 51.25004 | 4.78917 | 27619 ft | 465 kts | 151° |
| 2026-05-06 18:22 | 51.22195 | 4.81445 | 27994 ft | 463 kts | 152° |
| 2026-05-06 18:22 | 51.19387 | 4.83962 | 28354 ft | 462 kts | 152° |
| 2026-05-06 18:23 | 51.16548 | 4.86504 | 28729 ft | 461 kts | 151° |
| 2026-05-06 18:23 | 51.13794 | 4.88967 | 29119 ft | 459 kts | 152° |
| 2026-05-06 18:23 | 51.10981 | 4.91482 | 29540 ft | 457 kts | 152° |
| 2026-05-06 18:23 | 51.08243 | 4.93919 | 29942 ft | 455 kts | 152° |
| 2026-05-06 18:24 | 51.05491 | 4.96363 | 30268 ft | 453 kts | 152° |
| 2026-05-06 18:24 | 51.02736 | 4.98821 | 30539 ft | 453 kts | 152° |
| 2026-05-06 18:24 | 50.99997 | 5.01261 | 30801 ft | 453 kts | 152° |
| 2026-05-06 18:24 | 50.97242 | 5.03707 | 31064 ft | 453 kts | 152° |
| 2026-05-06 18:25 | 50.94502 | 5.06133 | 31325 ft | 453 kts | 152° |
| 2026-05-06 18:25 | 50.91744 | 5.08571 | 31590 ft | 453 kts | 152° |
| 2026-05-06 18:25 | 50.89002 | 5.10996 | 31837 ft | 453 kts | 152° |
| 2026-05-06 18:25 | 50.86241 | 5.13436 | 32082 ft | 453 kts | 152° |
| 2026-05-06 18:26 | 50.83486 | 5.15866 | 32325 ft | 453 kts | 152° |
| 2026-05-06 18:26 | 50.80738 | 5.18285 | 32593 ft | 452 kts | 152° |
| 2026-05-06 18:26 | 50.77996 | 5.20692 | 32869 ft | 451 kts | 152° |
| 2026-05-06 18:26 | 50.75245 | 5.23101 | 33116 ft | 451 kts | 152° |
| 2026-05-06 18:27 | 50.72506 | 5.25502 | 33348 ft | 450 kts | 152° |
| 2026-05-06 18:27 | 50.69771 | 5.27899 | 33565 ft | 450 kts | 152° |
| 2026-05-06 18:27 | 50.67025 | 5.30302 | 33774 ft | 450 kts | 152° |
| 2026-05-06 18:27 | 50.64284 | 5.32697 | 33969 ft | 450 kts | 152° |
| 2026-05-06 18:28 | 50.61537 | 5.35090 | 34114 ft | 450 kts | 152° |
| 2026-05-06 18:28 | 50.58794 | 5.37476 | 34267 ft | 450 kts | 152° |
| 2026-05-06 18:28 | 50.56059 | 5.39857 | 34419 ft | 451 kts | 152° |
| 2026-05-06 18:28 | 50.53305 | 5.42251 | 34570 ft | 451 kts | 152° |
| 2026-05-06 18:29 | 50.50571 | 5.44623 | 34701 ft | 451 kts | 152° |
| 2026-05-06 18:29 | 50.47821 | 5.47003 | 34861 ft | 451 kts | 152° |
| 2026-05-06 18:29 | 50.42316 | 5.51758 | 34918 ft | 451 kts | 152° |
| 2026-05-06 18:30 | 50.36818 | 5.56495 | 34888 ft | 451 kts | 152° |
| 2026-05-06 18:30 | 50.31356 | 5.61192 | 34887 ft | 451 kts | 153° |
| 2026-05-06 18:31 | 50.25866 | 5.65897 | 34889 ft | 451 kts | 153° |
| 2026-05-06 18:31 | 50.20360 | 5.70606 | 34883 ft | 451 kts | 153° |
| 2026-05-06 18:32 | 50.14850 | 5.75304 | 34881 ft | 451 kts | 153° |
| 2026-05-06 18:32 | 50.09337 | 5.79992 | 34879 ft | 451 kts | 153° |
| 2026-05-06 18:33 | 50.03821 | 5.84678 | 34870 ft | 451 kts | 153° |
| 2026-05-06 18:33 | 49.98334 | 5.89319 | 34862 ft | 449 kts | 153° |
| 2026-05-06 18:34 | 49.92836 | 5.93955 | 34862 ft | 448 kts | 153° |
| 2026-05-06 18:34 | 49.87364 | 5.98555 | 34860 ft | 448 kts | 153° |
| 2026-05-06 18:35 | 49.81875 | 6.03168 | 34857 ft | 448 kts | 153° |
| 2026-05-06 18:35 | 49.76404 | 6.07756 | 34851 ft | 446 kts | 153° |
| 2026-05-06 18:36 | 49.70937 | 6.12319 | 34844 ft | 447 kts | 153° |
| 2026-05-06 18:36 | 49.65469 | 6.16870 | 34841 ft | 447 kts | 153° |
| 2026-05-06 18:37 | 49.60921 | 6.20648 | 34852 ft | 446 kts | 153° |
| 2026-05-06 18:37 | 49.54528 | 6.25952 | 34846 ft | 447 kts | 153° |
| 2026-05-06 18:38 | 49.49055 | 6.30477 | 34841 ft | 445 kts | 153° |
| 2026-05-06 18:38 | 49.43605 | 6.34963 | 34851 ft | 445 kts | 153° |
| 2026-05-06 18:39 | 49.38139 | 6.39446 | 34850 ft | 445 kts | 153° |
| 2026-05-06 18:40 | 49.29961 | 6.46162 | 34846 ft | 445 kts | 153° |
| 2026-05-06 18:40 | 49.24531 | 6.50601 | 34852 ft | 445 kts | 153° |
| 2026-05-06 18:41 | 49.19071 | 6.55049 | 34857 ft | 445 kts | 153° |
| 2026-05-06 18:41 | 49.13611 | 6.59497 | 34848 ft | 445 kts | 153° |
| 2026-05-06 18:42 | 49.08137 | 6.63920 | 34838 ft | 445 kts | 154° |
| 2026-05-06 18:42 | 49.02680 | 6.68338 | 34849 ft | 445 kts | 154° |
| 2026-05-06 18:43 | 48.97165 | 6.72609 | 34856 ft | 444 kts | 157° |
| 2026-05-06 18:43 | 48.91528 | 6.76462 | 34857 ft | 444 kts | 158° |
| 2026-05-06 18:44 | 48.85885 | 6.80309 | 34860 ft | 445 kts | 157° |
| 2026-05-06 18:44 | 48.80245 | 6.84159 | 34861 ft | 445 kts | 157° |
| 2026-05-06 18:45 | 48.74578 | 6.87989 | 34861 ft | 445 kts | 158° |
| 2026-05-06 18:45 | 48.68925 | 6.91807 | 34867 ft | 445 kts | 158° |
| 2026-05-06 18:46 | 48.63269 | 6.95621 | 34867 ft | 445 kts | 158° |
| 2026-05-06 18:46 | 48.57627 | 6.99435 | 34866 ft | 443 kts | 158° |
| 2026-05-06 18:47 | 48.52038 | 7.03198 | 34876 ft | 443 kts | 158° |
| 2026-05-06 18:47 | 48.46404 | 7.06975 | 34874 ft | 443 kts | 158° |
| 2026-05-06 18:48 | 48.40764 | 7.10749 | 34875 ft | 445 kts | 158° |
| 2026-05-06 18:48 | 48.35098 | 7.14524 | 34880 ft | 445 kts | 158° |
| 2026-05-06 18:49 | 48.31378 | 7.16995 | 34881 ft | 445 kts | 158° |
| 2026-05-06 18:49 | 48.25771 | 7.20720 | 34878 ft | 445 kts | 158° |
| 2026-05-06 18:50 | 48.21020 | 7.23869 | 34876 ft | 445 kts | 158° |
| 2026-05-06 18:50 | 48.15397 | 7.27591 | 34867 ft | 445 kts | 159° |
| 2026-05-06 18:51 | 48.09746 | 7.31321 | 34873 ft | 443 kts | 159° |
| 2026-05-06 18:51 | 48.04105 | 7.35033 | 34874 ft | 443 kts | 159° |
| 2026-05-06 18:52 | 47.98465 | 7.38734 | 34875 ft | 443 kts | 159° |
| 2026-05-06 18:52 | 47.92833 | 7.42425 | 34880 ft | 442 kts | 159° |
| 2026-05-06 18:53 | 47.87196 | 7.46107 | 34892 ft | 442 kts | 159° |
| 2026-05-06 18:53 | 47.81562 | 7.49779 | 34901 ft | 442 kts | 159° |
| 2026-05-06 18:54 | 47.75929 | 7.53443 | 34903 ft | 442 kts | 159° |
| 2026-05-06 18:54 | 47.70326 | 7.57275 | 34906 ft | 443 kts | 158° |
| 2026-05-06 18:55 | 47.64767 | 7.61201 | 34897 ft | 440 kts | 158° |
| 2026-05-06 18:55 | 47.59239 | 7.65089 | 34895 ft | 440 kts | 158° |
| 2026-05-06 18:56 | 47.53703 | 7.68976 | 34895 ft | 440 kts | 159° |
| 2026-05-06 18:56 | 47.48174 | 7.72849 | 34914 ft | 440 kts | 159° |
| 2026-05-06 18:57 | 47.42674 | 7.76693 | 34912 ft | 439 kts | 159° |
| 2026-05-06 18:57 | 47.37148 | 7.80546 | 34916 ft | 439 kts | 159° |
| 2026-05-06 18:58 | 47.31618 | 7.84389 | 34913 ft | 440 kts | 159° |
| 2026-05-06 18:58 | 47.26040 | 7.88261 | 34917 ft | 440 kts | 159° |
| 2026-05-06 18:59 | 47.25149 | 7.88879 | 34915 ft | 440 kts | 159° |
| 2026-05-06 18:59 | 47.20905 | 7.91816 | 34917 ft | 440 kts | 159° |
| 2026-05-06 19:00 | 47.15371 | 7.95636 | 34912 ft | 440 kts | 159° |
| 2026-05-06 19:00 | 47.09834 | 7.99451 | 34909 ft | 440 kts | 159° |
| 2026-05-06 19:01 | 47.04300 | 8.03252 | 34912 ft | 440 kts | 159° |
| 2026-05-06 19:01 | 46.98760 | 8.07053 | 34932 ft | 440 kts | 159° |
| 2026-05-06 19:02 | 46.93220 | 8.10846 | 34938 ft | 439 kts | 159° |
| 2026-05-06 19:02 | 46.87673 | 8.14634 | 34932 ft | 439 kts | 160° |
| 2026-05-06 19:03 | 46.82162 | 8.18393 | 34919 ft | 435 kts | 160° |
| 2026-05-06 19:03 | 46.76686 | 8.22117 | 34943 ft | 434 kts | 160° |
| 2026-05-06 19:04 | 46.71228 | 8.25814 | 34933 ft | 434 kts | 160° |
| 2026-05-06 19:04 | 46.65745 | 8.29523 | 34934 ft | 435 kts | 160° |
| 2026-05-06 19:05 | 46.60268 | 8.33223 | 34935 ft | 433 kts | 160° |
| 2026-05-06 19:05 | 46.54803 | 8.36903 | 34936 ft | 433 kts | 160° |
| 2026-05-06 19:06 | 46.49326 | 8.40581 | 34931 ft | 433 kts | 161° |
| 2026-05-06 19:06 | 46.43863 | 8.44246 | 34929 ft | 433 kts | 161° |
| 2026-05-06 19:07 | 46.38393 | 8.47908 | 34912 ft | 430 kts | 161° |
| 2026-05-06 19:07 | 46.32953 | 8.51537 | 34918 ft | 431 kts | 161° |
| 2026-05-06 19:08 | 46.27552 | 8.55135 | 34911 ft | 431 kts | 161° |
| 2026-05-06 19:08 | 46.22070 | 8.58779 | 34892 ft | 432 kts | 162° |
| 2026-05-06 19:09 | 46.16616 | 8.62391 | 34915 ft | 432 kts | 162° |
| 2026-05-06 19:09 | 46.11126 | 8.65764 | 34903 ft | 425 kts | 168° |
| 2026-05-06 19:09 | 46.08309 | 8.66634 | 34903 ft | 416 kts | 180° |
| 2026-05-06 19:10 | 46.05418 | 8.66802 | 34892 ft | 413 kts | 184° |
| 2026-05-06 19:10 | 45.99664 | 8.66879 | 34894 ft | 414 kts | 184° |
| 2026-05-06 19:11 | 45.93896 | 8.67032 | 34897 ft | 415 kts | 184° |
| 2026-05-06 19:11 | 45.88085 | 8.67218 | 34890 ft | 415 kts | 183° |
| 2026-05-06 19:12 | 45.82308 | 8.67408 | 34885 ft | 416 kts | 184° |
| 2026-05-06 19:12 | 45.76570 | 8.67596 | 34868 ft | 412 kts | 184° |
| 2026-05-06 19:13 | 45.70840 | 8.67783 | 34888 ft | 412 kts | 184° |
| 2026-05-06 19:13 | 45.65100 | 8.67968 | 34871 ft | 413 kts | 184° |
| 2026-05-06 19:14 | 45.59345 | 8.68155 | 34876 ft | 414 kts | 184° |
| 2026-05-06 19:14 | 45.53587 | 8.68342 | 34891 ft | 414 kts | 184° |
| 2026-05-06 19:15 | 45.47831 | 8.68529 | 34895 ft | 414 kts | 184° |
| 2026-05-06 19:15 | 45.42068 | 8.68713 | 34880 ft | 415 kts | 184° |
| 2026-05-06 19:16 | 45.36283 | 8.68899 | 34893 ft | 415 kts | 184° |
| 2026-05-06 19:16 | 45.30497 | 8.69085 | 34903 ft | 416 kts | 184° |
| 2026-05-06 19:17 | 45.24716 | 8.69271 | 34896 ft | 416 kts | 184° |
| 2026-05-06 19:17 | 45.18930 | 8.69456 | 34854 ft | 416 kts | 184° |
| 2026-05-06 19:18 | 45.13178 | 8.69639 | 34851 ft | 416 kts | 184° |
| 2026-05-06 19:18 | 45.07392 | 8.69824 | 34847 ft | 416 kts | 184° |
| 2026-05-06 19:19 | 45.01621 | 8.70008 | 34847 ft | 414 kts | 185° |
| 2026-05-06 19:19 | 44.95857 | 8.70189 | 34856 ft | 414 kts | 185° |
| 2026-05-06 19:20 | 44.90103 | 8.70373 | 34853 ft | 414 kts | 185° |
| 2026-05-06 19:20 | 44.84340 | 8.70557 | 34829 ft | 414 kts | 185° |
| 2026-05-06 19:21 | 44.78573 | 8.70738 | 34854 ft | 416 kts | 185° |
| 2026-05-06 19:21 | 44.72779 | 8.70920 | 34861 ft | 416 kts | 185° |
| 2026-05-06 19:22 | 44.66992 | 8.71102 | 34870 ft | 416 kts | 185° |
| 2026-05-06 19:22 | 44.61197 | 8.71282 | 34877 ft | 416 kts | 185° |
| 2026-05-06 19:23 | 44.55410 | 8.71460 | 34898 ft | 417 kts | 185° |
| 2026-05-06 19:23 | 44.49613 | 8.71644 | 34900 ft | 417 kts | 185° |
| 2026-05-06 19:24 | 44.43811 | 8.71821 | 34885 ft | 417 kts | 185° |
| 2026-05-06 19:24 | 44.38035 | 8.72001 | 34903 ft | 414 kts | 185° |
| 2026-05-06 19:25 | 44.32274 | 8.72185 | 34900 ft | 414 kts | 185° |
| 2026-05-06 19:25 | 44.26517 | 8.72369 | 34862 ft | 414 kts | 185° |
| 2026-05-06 19:26 | 44.20750 | 8.72584 | 34864 ft | 417 kts | 182° |
| 2026-05-06 19:26 | 44.14988 | 8.73993 | 34869 ft | 424 kts | 175° |
| 2026-05-06 19:27 | 44.09213 | 8.75711 | 34872 ft | 423 kts | 175° |
| 2026-05-06 19:27 | 44.03465 | 8.77380 | 34870 ft | 421 kts | 175° |
| 2026-05-06 19:28 | 43.97722 | 8.79017 | 34875 ft | 422 kts | 175° |
| 2026-05-06 19:28 | 43.91969 | 8.80687 | 34891 ft | 422 kts | 175° |
| 2026-05-06 19:29 | 43.86233 | 8.82330 | 34887 ft | 420 kts | 176° |
| 2026-05-06 19:29 | 43.80540 | 8.83943 | 34892 ft | 420 kts | 175° |
| 2026-05-06 19:30 | 43.74802 | 8.85595 | 34897 ft | 421 kts | 175° |
| 2026-05-06 19:30 | 43.69071 | 8.87248 | 34903 ft | 420 kts | 175° |
| 2026-05-06 19:31 | 43.63352 | 8.88875 | 34898 ft | 420 kts | 176° |
| 2026-05-06 19:31 | 43.54737 | 8.91302 | 34908 ft | 421 kts | 176° |
| 2026-05-06 19:32 | 43.49975 | 8.92657 | 34910 ft | 421 kts | 176° |
| 2026-05-06 19:32 | 43.44227 | 8.94287 | 34905 ft | 422 kts | 176° |
| 2026-05-06 19:33 | 43.38517 | 8.94880 | 34910 ft | 407 kts | 192° |
| 2026-05-06 19:33 | 43.33191 | 8.92738 | 34922 ft | 397 kts | 207° |
| 2026-05-06 19:34 | 43.28113 | 8.89763 | 34898 ft | 397 kts | 207° |
| 2026-05-06 19:34 | 43.22991 | 8.86803 | 34919 ft | 399 kts | 206° |
| 2026-05-06 19:35 | 43.17866 | 8.83889 | 34921 ft | 399 kts | 206° |
| 2026-05-06 19:35 | 43.12733 | 8.80964 | 34928 ft | 399 kts | 206° |
| 2026-05-06 19:36 | 43.07598 | 8.78041 | 34924 ft | 400 kts | 206° |
| 2026-05-06 19:36 | 43.02458 | 8.75126 | 34930 ft | 400 kts | 206° |
| 2026-05-06 19:37 | 42.97309 | 8.72225 | 34935 ft | 400 kts | 206° |
| 2026-05-06 19:37 | 42.92177 | 8.69321 | 34942 ft | 400 kts | 206° |
| 2026-05-06 19:38 | 42.87026 | 8.66425 | 34916 ft | 401 kts | 206° |
| 2026-05-06 19:38 | 42.81897 | 8.63547 | 34932 ft | 401 kts | 206° |
| 2026-05-06 19:39 | 42.76736 | 8.60645 | 34942 ft | 401 kts | 206° |
| 2026-05-06 19:39 | 42.71575 | 8.57754 | 34946 ft | 401 kts | 206° |
| 2026-05-06 19:40 | 42.66404 | 8.54857 | 34938 ft | 403 kts | 206° |
| 2026-05-06 19:40 | 42.61221 | 8.51957 | 34948 ft | 403 kts | 206° |
| 2026-05-06 19:41 | 42.56019 | 8.49062 | 34951 ft | 404 kts | 206° |
| 2026-05-06 19:41 | 42.50831 | 8.46179 | 34952 ft | 403 kts | 206° |
| 2026-05-06 19:42 | 42.45421 | 8.44020 | 34950 ft | 413 kts | 192° |
| 2026-05-06 19:42 | 42.39621 | 8.43982 | 34955 ft | 419 kts | 185° |
| 2026-05-06 19:43 | 42.33799 | 8.44185 | 34953 ft | 419 kts | 185° |
| 2026-05-06 19:43 | 42.27965 | 8.44364 | 34942 ft | 420 kts | 185° |
| 2026-05-06 19:44 | 42.22102 | 8.44999 | 34950 ft | 430 kts | 174° |
| 2026-05-06 19:44 | 42.19241 | 8.46286 | 34955 ft | 441 kts | 162° |
| 2026-05-06 19:44 | 42.16500 | 8.48221 | 34966 ft | 446 kts | 158° |
| 2026-05-06 19:45 | 42.11241 | 8.52230 | 34964 ft | 446 kts | 158° |
| 2026-05-06 19:45 | 42.05775 | 8.56301 | 34946 ft | 447 kts | 158° |
| 2026-05-06 19:46 | 42.00308 | 8.60341 | 34967 ft | 448 kts | 158° |
| 2026-05-06 19:46 | 41.94885 | 8.64343 | 34567 ft | 442 kts | 158° |
| 2026-05-06 19:47 | 41.92201 | 8.66321 | 33925 ft | 441 kts | 158° |
| 2026-05-06 19:47 | 41.89504 | 8.68302 | 33090 ft | 442 kts | 158° |
| 2026-05-06 19:47 | 41.86805 | 8.70278 | 32279 ft | 443 kts | 158° |
| 2026-05-06 19:47 | 41.84095 | 8.72264 | 31451 ft | 445 kts | 158° |
| 2026-05-06 19:48 | 41.81373 | 8.74266 | 30697 ft | 446 kts | 158° |
| 2026-05-06 19:48 | 41.78615 | 8.76139 | 29914 ft | 442 kts | 163° |
| 2026-05-06 19:48 | 41.75715 | 8.77393 | 28932 ft | 435 kts | 173° |
| 2026-05-06 19:48 | 41.72728 | 8.77912 | 27992 ft | 431 kts | 181° |
| 2026-05-06 19:49 | 41.69731 | 8.78149 | 27057 ft | 433 kts | 182° |
| 2026-05-06 19:49 | 41.66726 | 8.78364 | 26120 ft | 435 kts | 181° |
| 2026-05-06 19:49 | 41.63692 | 8.78609 | 25188 ft | 437 kts | 181° |
| 2026-05-06 19:49 | 41.60661 | 8.78866 | 24398 ft | 436 kts | 181° |
| 2026-05-06 19:50 | 41.57647 | 8.79118 | 23793 ft | 433 kts | 181° |
| 2026-05-06 19:50 | 41.54635 | 8.79369 | 23164 ft | 434 kts | 181° |
| 2026-05-06 19:50 | 41.51553 | 8.79629 | 22669 ft | 447 kts | 180° |
| 2026-05-06 19:50 | 41.48449 | 8.79895 | 22340 ft | 446 kts | 180° |
| 2026-05-06 19:51 | 41.45354 | 8.80160 | 22052 ft | 445 kts | 180° |
| 2026-05-06 19:51 | 41.42272 | 8.80426 | 21769 ft | 443 kts | 180° |
| 2026-05-06 19:51 | 41.39243 | 8.80686 | 21514 ft | 442 kts | 180° |
| 2026-05-06 19:51 | 41.36152 | 8.81063 | 21249 ft | 443 kts | 175° |
| 2026-05-06 19:52 | 41.33190 | 8.82039 | 20877 ft | 445 kts | 165° |
| 2026-05-06 19:52 | 41.30399 | 8.83812 | 20317 ft | 444 kts | 153° |
| 2026-05-06 19:52 | 41.27865 | 8.86105 | 19724 ft | 440 kts | 149° |
| 2026-05-06 19:52 | 41.25384 | 8.88463 | 19108 ft | 434 kts | 149° |
| 2026-05-06 19:53 | 41.22928 | 8.90777 | 18503 ft | 430 kts | 149° |
| 2026-05-06 19:53 | 41.20505 | 8.93038 | 17767 ft | 425 kts | 149° |
| 2026-05-06 19:53 | 41.18088 | 8.95278 | 17090 ft | 421 kts | 148° |
| 2026-05-06 19:53 | 41.15840 | 8.97750 | 16107 ft | 421 kts | 135° |
| 2026-05-06 19:54 | 41.14188 | 9.00940 | 14984 ft | 423 kts | 118° |
| 2026-05-06 19:54 | 41.13265 | 9.04643 | 14071 ft | 420 kts | 102° |
| 2026-05-06 19:54 | 41.13051 | 9.08436 | 13682 ft | 407 kts | 91° |
| 2026-05-06 19:54 | 41.13070 | 9.12118 | 13377 ft | 392 kts | 90° |
| 2026-05-06 19:55 | 41.13095 | 9.15672 | 13126 ft | 377 kts | 91° |
| 2026-05-06 19:55 | 41.13098 | 9.19072 | 12882 ft | 362 kts | 91° |
| 2026-05-06 19:55 | 41.13092 | 9.22337 | 12609 ft | 346 kts | 91° |
| 2026-05-06 19:55 | 41.13085 | 9.25465 | 12321 ft | 333 kts | 91° |
| 2026-05-06 19:56 | 41.13069 | 9.28478 | 12064 ft | 320 kts | 92° |
| 2026-05-06 19:56 | 41.13055 | 9.31385 | 11724 ft | 314 kts | 91° |
| 2026-05-06 19:56 | 41.13043 | 9.34277 | 11285 ft | 314 kts | 91° |
| 2026-05-06 19:56 | 41.13027 | 9.37161 | 10898 ft | 311 kts | 92° |
| 2026-05-06 19:57 | 41.13006 | 9.40013 | 10514 ft | 309 kts | 92° |
| 2026-05-06 19:57 | 41.12986 | 9.42859 | 10145 ft | 307 kts | 92° |
| 2026-05-06 19:57 | 41.12969 | 9.45680 | 9751 ft | 305 kts | 92° |
| 2026-05-06 19:57 | 41.12949 | 9.48474 | 9366 ft | 302 kts | 91° |
| 2026-05-06 19:58 | 41.12930 | 9.51247 | 8960 ft | 300 kts | 91° |
| 2026-05-06 19:58 | 41.12916 | 9.53997 | 8558 ft | 297 kts | 91° |
| 2026-05-06 19:58 | 41.12897 | 9.56722 | 8189 ft | 294 kts | 92° |
| 2026-05-06 19:58 | 41.12876 | 9.59395 | 7700 ft | 292 kts | 92° |
| 2026-05-06 19:59 | 41.12858 | 9.62075 | 7225 ft | 289 kts | 92° |
| 2026-05-06 19:59 | 41.12835 | 9.64722 | 6829 ft | 283 kts | 92° |
| 2026-05-06 19:59 | 41.12825 | 9.67275 | 6568 ft | 272 kts | 89° |
| 2026-05-06 19:59 | 41.13256 | 9.69659 | 6267 ft | 265 kts | 63° |
| 2026-05-06 20:00 | 41.14250 | 9.71698 | 5839 ft | 263 kts | 55° |
| 2026-05-06 20:00 | 41.15319 | 9.73658 | 5576 ft | 261 kts | 54° |
| 2026-05-06 20:00 | 41.16355 | 9.75576 | 5432 ft | 250 kts | 54° |
| 2026-05-06 20:00 | 41.17352 | 9.77433 | 5262 ft | 244 kts | 55° |
| 2026-05-06 20:01 | 41.18329 | 9.79269 | 5127 ft | 243 kts | 56° |
| 2026-05-06 20:01 | 41.19023 | 9.81286 | 4983 ft | 242 kts | 81° |
| 2026-05-06 20:01 | 41.18953 | 9.83481 | 4868 ft | 239 kts | 109° |
| 2026-05-06 20:01 | 41.18182 | 9.85359 | 4884 ft | 229 kts | 135° |
| 2026-05-06 20:02 | 41.16929 | 9.86591 | 4906 ft | 224 kts | 159° |
| 2026-05-06 20:02 | 41.15424 | 9.87028 | 4888 ft | 222 kts | 180° |
| 2026-05-06 20:02 | 41.13900 | 9.86922 | 4800 ft | 217 kts | 186° |
| 2026-05-06 20:02 | 41.12376 | 9.86759 | 4504 ft | 220 kts | 184° |
| 2026-05-06 20:03 | 41.10858 | 9.86626 | 4290 ft | 215 kts | 184° |
| 2026-05-06 20:03 | 41.09371 | 9.86508 | 4110 ft | 213 kts | 184° |
| 2026-05-06 20:03 | 41.07941 | 9.86083 | 3937 ft | 211 kts | 210° |
| 2026-05-06 20:03 | 41.06867 | 9.84757 | 3809 ft | 213 kts | 231° |
| 2026-05-06 20:04 | 41.06026 | 9.83148 | 3685 ft | 214 kts | 237° |
| 2026-05-06 20:04 | 41.05242 | 9.81467 | 3566 ft | 215 kts | 237° |
| 2026-05-06 20:04 | 41.04454 | 9.79788 | 3446 ft | 214 kts | 237° |
| 2026-05-06 20:04 | 41.03667 | 9.78167 | 3329 ft | 203 kts | 235° |
| 2026-05-06 20:05 | 41.02881 | 9.76642 | 3215 ft | 200 kts | 234° |
| 2026-05-06 20:05 | 41.02096 | 9.75135 | 3111 ft | 199 kts | 234° |
| 2026-05-06 20:05 | 41.01308 | 9.73627 | 3008 ft | 199 kts | 234° |
| 2026-05-06 20:05 | 41.00527 | 9.72131 | 2955 ft | 193 kts | 234° |
| 2026-05-06 20:06 | 40.99814 | 9.70766 | 3005 ft | 168 kts | 234° |
| 2026-05-06 20:06 | 40.99192 | 9.69575 | 2915 ft | 153 kts | 234° |
| 2026-05-06 20:06 | 40.98589 | 9.68422 | 2756 ft | 152 kts | 234° |
| 2026-05-06 20:06 | 40.97990 | 9.67277 | 2578 ft | 151 kts | 234° |
| 2026-05-06 20:07 | 40.97391 | 9.66132 | 2384 ft | 151 kts | 234° |
| 2026-05-06 20:07 | 40.96794 | 9.64990 | 2183 ft | 151 kts | 234° |
| 2026-05-06 20:07 | 40.96196 | 9.63847 | 1984 ft | 150 kts | 234° |
| 2026-05-06 20:07 | 40.95601 | 9.62709 | 1795 ft | 150 kts | 234° |
| 2026-05-06 20:08 | 40.95037 | 9.61632 | 1645 ft | 136 kts | 234° |
| 2026-05-06 20:08 | 40.94503 | 9.60613 | 1445 ft | 135 kts | 234° |
| 2026-05-06 20:08 | 40.93967 | 9.59589 | 1241 ft | 136 kts | 234° |
| 2026-05-06 20:08 | 40.93430 | 9.58562 | 1056 ft | 135 kts | 234° |
| 2026-05-06 20:09 | 40.92892 | 9.57535 | 868 ft | 136 kts | 235° |
| 2026-05-06 20:09 | 40.92356 | 9.56513 | 672 ft | 135 kts | 236° |
| 2026-05-06 20:09 | 40.91824 | 9.55493 | 494 ft | 135 kts | 236° |
| 2026-05-06 20:09 | 40.91290 | 9.54472 | 308 ft | 135 kts | 235° |
| 2026-05-06 20:10 | 40.90762 | 9.53456 | 121 ft | 134 kts | 235° |
| 2026-05-06 20:10 | 40.90238 | 9.52468 | 43 ft | 122 kts | 235° |
| 2026-05-06 20:10 | 40.89868 | 9.51764 | 42 ft | 63 kts | 236° |
| 2026-05-06 20:10 | 40.89676 | 9.51402 | 48 ft | 40 kts | 228° |
| 2026-05-06 20:11 | 40.89625 | 9.51218 | 52 ft | 18 kts | 293° |
| 2026-05-06 20:11 | 40.89661 | 9.51126 | 53 ft | 11 kts | 314° |
| 2026-05-06 20:11 | 40.89720 | 9.51105 | 53 ft | 9 kts | 36° |
| 2026-05-06 20:11 | 40.89766 | 9.51172 | 52 ft | 11 kts | 56° |
| 2026-05-06 20:12 | 40.89806 | 9.51263 | 51 ft | 12 kts | 59° |
| 2026-05-06 20:12 | 40.89858 | 9.51364 | 51 ft | 14 kts | 54° |
| 2026-05-06 20:12 | 40.89916 | 9.51471 | 49 ft | 10 kts | 53° |
| 2026-05-06 20:12 | 40.89968 | 9.51516 | 47 ft | 10 kts | 4° |
| 2026-05-06 20:13 | 40.90041 | 9.51493 | 47 ft | 12 kts | 329° |
| 2026-05-06 20:13 | 40.90108 | 9.51532 | 48 ft | 14 kts | 54° |
| 2026-05-06 20:13 | 40.90131 | 9.51583 | 48 ft | 5 kts | 58° |
| 2026-05-06 20:13 | 40.90160 | 9.51603 | 48 ft | 6 kts | 337° |
| 2026-05-06 20:14 | 40.90191 | 9.51580 | 48 ft | 5 kts | 326° |
| 2026-05-06 20:14 | 40.90195 | 9.51576 | 49 ft | 0 kts | 326° |
| 2026-05-06 20:14 | 40.90199 | 9.51573 | 49 ft | 0 kts | 327° |